sensor_id;sensor_type;location;lat;lon;timestamp;pressure;altitude;pressure_sealevel;temperature;humidity
9822;BME280;4950;46.042;14.472;2022-11-20T00:01:15;97384.25;;;5.18;89.99
9822;BME280;4950;46.042;14.472;2022-11-20T00:03:43;97381.03;;;5.16;90.47
9822;BME280;4950;46.042;14.472;2022-11-20T00:06:12;97379.25;;;5.16;90.83
9822;BME280;4950;46.042;14.472;2022-11-20T00:08:38;97383.38;;;5.09;90.86
9822;BME280;4950;46.042;14.472;2022-11-20T00:11:06;97378.94;;;5.19;91.24
9822;BME280;4950;46.042;14.472;2022-11-20T00:13:33;97386.47;;;5.12;91.13
9822;BME280;4950;46.042;14.472;2022-11-20T00:16:01;97387.59;;;5.10;90.97
9822;BME280;4950;46.042;14.472;2022-11-20T00:18:30;97387.28;;;5.13;90.77
9822;BME280;4950;46.042;14.472;2022-11-20T00:21:00;97392.88;;;5.08;90.84
9822;BME280;4950;46.042;14.472;2022-11-20T00:23:27;97393.03;;;5.07;90.85
9822;BME280;4950;46.042;14.472;2022-11-20T00:25:54;97397.91;;;5.18;90.37
9822;BME280;4950;46.042;14.472;2022-11-20T00:28:20;97392.50;;;5.03;90.36
9822;BME280;4950;46.042;14.472;2022-11-20T00:30:47;97403.13;;;5.00;90.93
9822;BME280;4950;46.042;14.472;2022-11-20T00:33:13;97407.25;;;4.93;91.23
9822;BME280;4950;46.042;14.472;2022-11-20T00:35:42;97405.97;;;4.97;91.39
9822;BME280;4950;46.042;14.472;2022-11-20T00:38:08;97411.06;;;4.89;91.91
9822;BME280;4950;46.042;14.472;2022-11-20T00:40:35;97410.28;;;4.88;92.93
9822;BME280;4950;46.042;14.472;2022-11-20T00:43:02;97411.13;;;4.97;92.99
9822;BME280;4950;46.042;14.472;2022-11-20T00:45:28;97411.13;;;4.97;91.98
9822;BME280;4950;46.042;14.472;2022-11-20T00:47:55;97409.53;;;4.96;92.87
9822;BME280;4950;46.042;14.472;2022-11-20T00:50:22;97404.38;;;4.96;92.53
9822;BME280;4950;46.042;14.472;2022-11-20T00:52:50;97417.28;;;5.04;92.16
9822;BME280;4950;46.042;14.472;2022-11-20T00:55:16;97406.69;;;5.07;91.97
9822;BME280;4950;46.042;14.472;2022-11-20T00:57:43;97410.28;;;5.14;91.06
9822;BME280;4950;46.042;14.472;2022-11-20T01:00:10;97412.47;;;5.09;91.36
9822;BME280;4950;46.042;14.472;2022-11-20T01:02:37;97420.00;;;5.03;91.21
9822;BME280;4950;46.042;14.472;2022-11-20T01:05:04;97418.56;;;5.00;91.40
9822;BME280;4950;46.042;14.472;2022-11-20T01:07:31;97415.47;;;4.97;91.63
9822;BME280;4950;46.042;14.472;2022-11-20T01:09:59;97416.13;;;4.99;91.53
9822;BME280;4950;46.042;14.472;2022-11-20T01:12:26;97421.56;;;4.95;91.02
9822;BME280;4950;46.042;14.472;2022-11-20T01:14:53;97424.06;;;4.87;91.69
9822;BME280;4950;46.042;14.472;2022-11-20T01:17:20;97422.81;;;4.91;91.72
9822;BME280;4950;46.042;14.472;2022-11-20T01:19:48;97418.84;;;4.97;91.48
9822;BME280;4950;46.042;14.472;2022-11-20T01:22:15;97419.06;;;4.86;91.44
9822;BME280;4950;46.042;14.472;2022-11-20T01:24:41;97427.25;;;4.81;91.75
9822;BME280;4950;46.042;14.472;2022-11-20T01:27:10;97424.81;;;4.80;92.06
9822;BME280;4950;46.042;14.472;2022-11-20T01:29:36;97430.00;;;4.88;91.60
9822;BME280;4950;46.042;14.472;2022-11-20T01:32:03;97423.03;;;4.80;91.49
9822;BME280;4950;46.042;14.472;2022-11-20T01:34:30;97426.28;;;4.82;91.80
9822;BME280;4950;46.042;14.472;2022-11-20T01:36:57;97430.75;;;4.80;91.47
9822;BME280;4950;46.042;14.472;2022-11-20T01:39:25;97428.34;;;4.79;91.31
9822;BME280;4950;46.042;14.472;2022-11-20T01:41:53;97434.97;;;4.63;91.27
9822;BME280;4950;46.042;14.472;2022-11-20T01:44:49;97431.81;;;4.69;91.14
9822;BME280;4950;46.042;14.472;2022-11-20T01:47:17;97425.34;;;4.65;91.02
9822;BME280;4950;46.042;14.472;2022-11-20T01:49:48;97431.00;;;4.69;90.58
9822;BME280;4950;46.042;14.472;2022-11-20T01:52:20;97431.88;;;4.60;90.74
9822;BME280;4950;46.042;14.472;2022-11-20T01:54:52;97430.06;;;4.52;91.48
9822;BME280;4950;46.042;14.472;2022-11-20T01:57:21;97427.03;;;4.57;91.22
9822;BME280;4950;46.042;14.472;2022-11-20T02:00:02;97425.91;;;4.41;91.50
9822;BME280;4950;46.042;14.472;2022-11-20T02:02:31;97424.19;;;4.42;91.68
9822;BME280;4950;46.042;14.472;2022-11-20T02:05:04;97422.34;;;4.34;91.38
9822;BME280;4950;46.042;14.472;2022-11-20T02:07:36;97429.88;;;4.18;92.00
9822;BME280;4950;46.042;14.472;2022-11-20T02:10:04;97426.88;;;4.22;92.40
9822;BME280;4950;46.042;14.472;2022-11-20T02:12:30;97425.56;;;4.18;92.61
9822;BME280;4950;46.042;14.472;2022-11-20T02:15:18;97428.63;;;4.22;92.38
9822;BME280;4950;46.042;14.472;2022-11-20T02:17:45;97421.09;;;4.20;92.13
9822;BME280;4950;46.042;14.472;2022-11-20T02:20:12;97423.28;;;4.15;92.77
9822;BME280;4950;46.042;14.472;2022-11-20T02:22:45;97420.25;;;4.20;92.62
9822;BME280;4950;46.042;14.472;2022-11-20T02:25:16;97412.53;;;4.02;93.01
9822;BME280;4950;46.042;14.472;2022-11-20T02:27:43;97418.78;;;3.99;93.40
9822;BME280;4950;46.042;14.472;2022-11-20T02:30:11;97420.38;;;4.00;93.47
9822;BME280;4950;46.042;14.472;2022-11-20T02:32:39;97429.03;;;3.99;93.10
9822;BME280;4950;46.042;14.472;2022-11-20T02:35:08;97427.66;;;4.05;93.06
9822;BME280;4950;46.042;14.472;2022-11-20T02:37:37;97423.06;;;4.08;92.15
9822;BME280;4950;46.042;14.472;2022-11-20T02:40:06;97428.53;;;3.95;92.77
9822;BME280;4950;46.042;14.472;2022-11-20T02:42:34;97420.22;;;4.02;93.43
9822;BME280;4950;46.042;14.472;2022-11-20T02:45:01;97425.44;;;4.10;93.16
9822;BME280;4950;46.042;14.472;2022-11-20T02:47:28;97427.88;;;4.11;92.78
9822;BME280;4950;46.042;14.472;2022-11-20T02:49:54;97427.59;;;4.14;93.37
9822;BME280;4950;46.042;14.472;2022-11-20T02:52:21;97420.13;;;4.21;93.38
9822;BME280;4950;46.042;14.472;2022-11-20T02:54:48;97419.69;;;4.26;92.63
9822;BME280;4950;46.042;14.472;2022-11-20T02:57:14;97421.81;;;4.30;92.59
9822;BME280;4950;46.042;14.472;2022-11-20T02:59:42;97422.34;;;4.34;92.62
9822;BME280;4950;46.042;14.472;2022-11-20T03:02:09;97427.69;;;4.41;91.88
9822;BME280;4950;46.042;14.472;2022-11-20T03:04:36;97425.38;;;4.47;91.67
9822;BME280;4950;46.042;14.472;2022-11-20T03:07:03;97425.19;;;4.49;92.11
9822;BME280;4950;46.042;14.472;2022-11-20T03:09:29;97420.38;;;4.46;91.44
9822;BME280;4950;46.042;14.472;2022-11-20T03:11:56;97422.13;;;4.45;91.89
9822;BME280;4950;46.042;14.472;2022-11-20T03:14:23;97419.78;;;4.52;91.79
9822;BME280;4950;46.042;14.472;2022-11-20T03:16:51;97422.06;;;4.55;91.50
9822;BME280;4950;46.042;14.472;2022-11-20T03:19:17;97426.03;;;4.49;90.96
9822;BME280;4950;46.042;14.472;2022-11-20T03:21:44;97424.53;;;4.47;90.72
9822;BME280;4950;46.042;14.472;2022-11-20T03:24:11;97426.59;;;4.43;90.78
9822;BME280;4950;46.042;14.472;2022-11-20T03:26:39;97414.03;;;4.40;90.80
9822;BME280;4950;46.042;14.472;2022-11-20T03:29:06;97421.91;;;4.39;90.69
9822;BME280;4950;46.042;14.472;2022-11-20T03:31:34;97410.81;;;4.38;90.70
9822;BME280;4950;46.042;14.472;2022-11-20T03:34:03;97411.94;;;4.35;91.07
9822;BME280;4950;46.042;14.472;2022-11-20T03:36:30;97417.47;;;4.31;91.31
9822;BME280;4950;46.042;14.472;2022-11-20T03:38:57;97416.75;;;4.39;91.16
9822;BME280;4950;46.042;14.472;2022-11-20T03:41:25;97415.50;;;4.43;90.43
9822;BME280;4950;46.042;14.472;2022-11-20T03:43:54;97415.44;;;4.34;90.99
9822;BME280;4950;46.042;14.472;2022-11-20T03:46:21;97420.28;;;4.38;90.63
9822;BME280;4950;46.042;14.472;2022-11-20T03:48:48;97415.66;;;4.41;90.71
9822;BME280;4950;46.042;14.472;2022-11-20T03:51:18;97413.59;;;4.45;90.32
9822;BME280;4950;46.042;14.472;2022-11-20T03:53:46;97417.94;;;4.44;90.00
9822;BME280;4950;46.042;14.472;2022-11-20T03:56:15;97414.91;;;4.49;90.47
9822;BME280;4950;46.042;14.472;2022-11-20T03:58:42;97408.97;;;4.48;89.63
9822;BME280;4950;46.042;14.472;2022-11-20T04:01:11;97407.50;;;4.46;90.03
9822;BME280;4950;46.042;14.472;2022-11-20T04:03:38;97410.03;;;4.38;89.88
9822;BME280;4950;46.042;14.472;2022-11-20T04:06:07;97414.78;;;4.32;90.73
9822;BME280;4950;46.042;14.472;2022-11-20T04:08:35;97405.97;;;4.35;90.80
9822;BME280;4950;46.042;14.472;2022-11-20T04:11:10;97407.22;;;4.31;90.42
9822;BME280;4950;46.042;14.472;2022-11-20T04:13:37;97411.53;;;4.30;89.86
9822;BME280;4950;46.042;14.472;2022-11-20T04:16:04;97414.69;;;4.24;89.96
9822;BME280;4950;46.042;14.472;2022-11-20T04:18:32;97420.13;;;4.21;90.04
9822;BME280;4950;46.042;14.472;2022-11-20T04:20:58;97415.50;;;4.25;90.89
9822;BME280;4950;46.042;14.472;2022-11-20T04:23:25;97422.94;;;4.28;90.68
9822;BME280;4950;46.042;14.472;2022-11-20T04:25:54;97423.59;;;4.30;90.25
9822;BME280;4950;46.042;14.472;2022-11-20T04:28:21;97427.25;;;4.27;90.82
9822;BME280;4950;46.042;14.472;2022-11-20T04:30:47;97426.09;;;4.40;90.52
9822;BME280;4950;46.042;14.472;2022-11-20T04:33:14;97425.25;;;4.39;90.83
9822;BME280;4950;46.042;14.472;2022-11-20T04:35:40;97422.22;;;4.35;91.16
9822;BME280;4950;46.042;14.472;2022-11-20T04:38:07;97430.41;;;4.39;91.27
9822;BME280;4950;46.042;14.472;2022-11-20T04:40:34;97419.19;;;4.40;90.81
9822;BME280;4950;46.042;14.472;2022-11-20T04:43:02;97422.94;;;4.46;90.09
9822;BME280;4950;46.042;14.472;2022-11-20T04:45:28;97420.66;;;4.43;90.26
9822;BME280;4950;46.042;14.472;2022-11-20T04:47:55;97421.31;;;4.45;89.88
9822;BME280;4950;46.042;14.472;2022-11-20T04:50:22;97426.50;;;4.35;89.88
9822;BME280;4950;46.042;14.472;2022-11-20T04:52:48;97422.88;;;4.38;90.08
9822;BME280;4950;46.042;14.472;2022-11-20T04:55:15;97424.47;;;4.39;90.47
9822;BME280;4950;46.042;14.472;2022-11-20T04:57:42;97424.97;;;4.42;90.56
9822;BME280;4950;46.042;14.472;2022-11-20T05:00:11;97432.69;;;4.42;90.34
9822;BME280;4950;46.042;14.472;2022-11-20T05:02:38;97430.13;;;4.42;89.86
9822;BME280;4950;46.042;14.472;2022-11-20T05:05:05;97426.16;;;4.48;89.99
9822;BME280;4950;46.042;14.472;2022-11-20T05:07:32;97421.38;;;4.53;89.36
9822;BME280;4950;46.042;14.472;2022-11-20T05:09:58;97424.47;;;4.57;89.79
9822;BME280;4950;46.042;14.472;2022-11-20T05:12:25;97421.09;;;4.56;89.05
9822;BME280;4950;46.042;14.472;2022-11-20T05:14:52;97421.69;;;4.50;89.65
9822;BME280;4950;46.042;14.472;2022-11-20T05:17:20;97417.19;;;4.52;89.67
9822;BME280;4950;46.042;14.472;2022-11-20T05:19:47;97424.78;;;4.53;89.35
9822;BME280;4950;46.042;14.472;2022-11-20T05:22:14;97422.19;;;4.53;88.42
9822;BME280;4950;46.042;14.472;2022-11-20T05:24:40;97435.53;;;4.39;88.69
9822;BME280;4950;46.042;14.472;2022-11-20T05:27:07;97436.28;;;4.31;88.97
9822;BME280;4950;46.042;14.472;2022-11-20T05:29:33;97443.47;;;4.28;89.54
9822;BME280;4950;46.042;14.472;2022-11-20T05:32:00;97441.72;;;4.28;90.21
9822;BME280;4950;46.042;14.472;2022-11-20T05:34:28;97445.09;;;4.29;90.35
9822;BME280;4950;46.042;14.472;2022-11-20T05:36:55;97448.31;;;4.31;90.45
9822;BME280;4950;46.042;14.472;2022-11-20T05:39:21;97444.44;;;4.45;89.71
9822;BME280;4950;46.042;14.472;2022-11-20T05:41:48;97445.34;;;4.53;89.05
9822;BME280;4950;46.042;14.472;2022-11-20T05:44:34;97449.38;;;4.56;88.88
9822;BME280;4950;46.042;14.472;2022-11-20T05:47:01;97457.22;;;4.54;88.98
9822;BME280;4950;46.042;14.472;2022-11-20T05:49:29;97457.94;;;4.47;89.50
9822;BME280;4950;46.042;14.472;2022-11-20T05:51:56;97454.56;;;4.46;89.36
9822;BME280;4950;46.042;14.472;2022-11-20T05:54:22;97453.38;;;4.41;89.31
9822;BME280;4950;46.042;14.472;2022-11-20T05:56:49;97448.38;;;4.39;88.96
9822;BME280;4950;46.042;14.472;2022-11-20T05:59:16;97450.47;;;4.35;89.57
9822;BME280;4950;46.042;14.472;2022-11-20T06:01:42;97449.06;;;4.41;89.56
9822;BME280;4950;46.042;14.472;2022-11-20T06:04:09;97451.88;;;4.48;89.91
9822;BME280;4950;46.042;14.472;2022-11-20T06:06:37;97460.69;;;4.45;89.81
9822;BME280;4950;46.042;14.472;2022-11-20T06:09:04;97464.94;;;4.54;89.14
9822;BME280;4950;46.042;14.472;2022-11-20T06:11:30;97468.47;;;4.53;88.68
9822;BME280;4950;46.042;14.472;2022-11-20T06:13:57;97480.28;;;4.46;88.77
9822;BME280;4950;46.042;14.472;2022-11-20T06:16:23;97478.50;;;4.47;89.23
9822;BME280;4950;46.042;14.472;2022-11-20T06:18:50;97480.47;;;4.53;89.00
9822;BME280;4950;46.042;14.472;2022-11-20T06:21:19;97475.78;;;4.48;89.24
9822;BME280;4950;46.042;14.472;2022-11-20T06:23:48;97478.81;;;4.44;89.44
9822;BME280;4950;46.042;14.472;2022-11-20T06:26:16;97486.31;;;4.55;89.24
9822;BME280;4950;46.042;14.472;2022-11-20T06:28:43;97495.91;;;4.53;88.70
9822;BME280;4950;46.042;14.472;2022-11-20T06:31:12;97497.00;;;4.50;88.65
9822;BME280;4950;46.042;14.472;2022-11-20T06:33:39;97504.66;;;4.42;88.97
9822;BME280;4950;46.042;14.472;2022-11-20T06:36:06;97502.59;;;4.46;88.89
9822;BME280;4950;46.042;14.472;2022-11-20T06:38:33;97496.66;;;4.45;89.01
9822;BME280;4950;46.042;14.472;2022-11-20T06:41:03;97500.97;;;4.45;89.06
9822;BME280;4950;46.042;14.472;2022-11-20T06:43:29;97505.44;;;4.43;89.09
9822;BME280;4950;46.042;14.472;2022-11-20T06:45:57;97501.22;;;4.51;89.14
9822;BME280;4950;46.042;14.472;2022-11-20T06:48:26;97507.97;;;4.52;89.45
9822;BME280;4950;46.042;14.472;2022-11-20T06:50:52;97516.91;;;4.48;89.43
9822;BME280;4950;46.042;14.472;2022-11-20T06:53:19;97511.50;;;4.51;89.32
9822;BME280;4950;46.042;14.472;2022-11-20T06:55:47;97515.53;;;4.54;89.13
9822;BME280;4950;46.042;14.472;2022-11-20T06:58:15;97527.00;;;4.60;88.65
9822;BME280;4950;46.042;14.472;2022-11-20T07:00:42;97529.72;;;4.58;88.60
9822;BME280;4950;46.042;14.472;2022-11-20T07:03:11;97530.09;;;4.63;89.04
9822;BME280;4950;46.042;14.472;2022-11-20T07:05:38;97524.94;;;4.63;88.47
9822;BME280;4950;46.042;14.472;2022-11-20T07:08:05;97533.47;;;4.64;88.86
9822;BME280;4950;46.042;14.472;2022-11-20T07:10:33;97540.91;;;4.67;88.73
9822;BME280;4950;46.042;14.472;2022-11-20T07:12:59;97547.63;;;4.68;88.62
9822;BME280;4950;46.042;14.472;2022-11-20T07:15:27;97546.97;;;4.66;88.67
9822;BME280;4950;46.042;14.472;2022-11-20T07:17:54;97546.31;;;4.64;88.65
9822;BME280;4950;46.042;14.472;2022-11-20T07:20:21;97554.31;;;4.61;88.60
9822;BME280;4950;46.042;14.472;2022-11-20T07:22:53;97550.41;;;4.57;89.21
9822;BME280;4950;46.042;14.472;2022-11-20T07:25:19;97554.59;;;4.58;88.95
9822;BME280;4950;46.042;14.472;2022-11-20T07:27:46;97557.97;;;4.58;89.60
9822;BME280;4950;46.042;14.472;2022-11-20T07:30:13;97556.38;;;4.57;89.08
9822;BME280;4950;46.042;14.472;2022-11-20T07:32:41;97558.41;;;4.53;89.38
9822;BME280;4950;46.042;14.472;2022-11-20T07:35:08;97563.56;;;4.53;89.67
9822;BME280;4950;46.042;14.472;2022-11-20T07:37:35;97564.22;;;4.55;88.45
9822;BME280;4950;46.042;14.472;2022-11-20T07:40:02;97569.94;;;4.49;89.51
9822;BME280;4950;46.042;14.472;2022-11-20T07:42:29;97570.66;;;4.42;89.13
9822;BME280;4950;46.042;14.472;2022-11-20T07:44:56;97577.53;;;4.41;90.05
9822;BME280;4950;46.042;14.472;2022-11-20T07:47:22;97575.34;;;4.46;89.97
9822;BME280;4950;46.042;14.472;2022-11-20T07:49:51;97578.47;;;4.50;90.14
9822;BME280;4950;46.042;14.472;2022-11-20T07:52:18;97578.84;;;4.55;89.61
9822;BME280;4950;46.042;14.472;2022-11-20T07:54:44;97584.47;;;4.59;89.70
9822;BME280;4950;46.042;14.472;2022-11-20T07:57:11;97580.97;;;4.60;89.13
9822;BME280;4950;46.042;14.472;2022-11-20T07:59:38;97584.00;;;4.55;89.26
9822;BME280;4950;46.042;14.472;2022-11-20T08:02:05;97580.59;;;4.54;89.25
9822;BME280;4950;46.042;14.472;2022-11-20T08:04:31;97589.25;;;4.53;89.96
9822;BME280;4950;46.042;14.472;2022-11-20T08:06:59;97587.34;;;4.55;89.91
9822;BME280;4950;46.042;14.472;2022-11-20T08:09:26;97591.47;;;4.66;89.23
9822;BME280;4950;46.042;14.472;2022-11-20T08:11:54;97591.97;;;4.52;89.10
9822;BME280;4950;46.042;14.472;2022-11-20T08:14:38;97600.53;;;4.43;89.65
9822;BME280;4950;46.042;14.472;2022-11-20T08:17:05;97602.16;;;4.44;90.46
9822;BME280;4950;46.042;14.472;2022-11-20T08:19:31;97609.44;;;4.48;90.82
9822;BME280;4950;46.042;14.472;2022-11-20T08:21:59;97609.69;;;4.55;90.72
9822;BME280;4950;46.042;14.472;2022-11-20T08:24:26;97616.44;;;4.56;90.17
9822;BME280;4950;46.042;14.472;2022-11-20T08:26:53;97620.78;;;4.55;89.92
9822;BME280;4950;46.042;14.472;2022-11-20T08:29:20;97622.50;;;4.65;89.66
9822;BME280;4950;46.042;14.472;2022-11-20T08:31:46;97622.63;;;4.63;89.44
9822;BME280;4950;46.042;14.472;2022-11-20T08:34:13;97625.88;;;4.65;89.30
9822;BME280;4950;46.042;14.472;2022-11-20T08:36:40;97628.31;;;4.67;89.18
9822;BME280;4950;46.042;14.472;2022-11-20T08:39:11;97634.25;;;4.67;88.52
9822;BME280;4950;46.042;14.472;2022-11-20T08:41:38;97630.47;;;4.62;88.21
9822;BME280;4950;46.042;14.472;2022-11-20T08:44:06;97634.44;;;4.56;89.10
9822;BME280;4950;46.042;14.472;2022-11-20T08:46:36;97636.94;;;4.66;89.72
9822;BME280;4950;46.042;14.472;2022-11-20T08:49:03;97636.41;;;4.62;89.53
9822;BME280;4950;46.042;14.472;2022-11-20T08:51:30;97636.81;;;4.67;90.05
9822;BME280;4950;46.042;14.472;2022-11-20T08:53:57;97644.09;;;4.72;89.79
9822;BME280;4950;46.042;14.472;2022-11-20T08:56:25;97647.19;;;4.75;89.71
9822;BME280;4950;46.042;14.472;2022-11-20T08:58:51;97646.53;;;4.73;89.83
9822;BME280;4950;46.042;14.472;2022-11-20T09:01:18;97644.63;;;4.75;89.94
9822;BME280;4950;46.042;14.472;2022-11-20T09:03:45;97646.25;;;4.77;90.14
9822;BME280;4950;46.042;14.472;2022-11-20T09:06:12;97650.25;;;4.89;89.22
9822;BME280;4950;46.042;14.472;2022-11-20T09:08:39;97651.19;;;4.88;89.09
9822;BME280;4950;46.042;14.472;2022-11-20T09:11:06;97649.56;;;4.87;89.60
9822;BME280;4950;46.042;14.472;2022-11-20T09:13:35;97658.63;;;4.91;89.71
9822;BME280;4950;46.042;14.472;2022-11-20T09:16:04;97656.44;;;4.96;89.87
9822;BME280;4950;46.042;14.472;2022-11-20T09:18:32;97656.00;;;5.01;89.82
9822;BME280;4950;46.042;14.472;2022-11-20T09:21:03;97655.81;;;5.12;89.05
9822;BME280;4950;46.042;14.472;2022-11-20T09:23:32;97657.91;;;5.17;87.84
9822;BME280;4950;46.042;14.472;2022-11-20T09:26:01;97656.53;;;5.04;88.09
9822;BME280;4950;46.042;14.472;2022-11-20T09:28:29;97658.78;;;5.07;88.27
9822;BME280;4950;46.042;14.472;2022-11-20T09:30:57;97662.31;;;5.06;88.95
9822;BME280;4950;46.042;14.472;2022-11-20T09:33:24;97665.13;;;5.13;89.24
9822;BME280;4950;46.042;14.472;2022-11-20T09:35:50;97664.13;;;5.24;88.10
9822;BME280;4950;46.042;14.472;2022-11-20T09:38:17;97665.19;;;5.21;87.90
9822;BME280;4950;46.042;14.472;2022-11-20T09:40:49;97664.41;;;5.21;87.50
9822;BME280;4950;46.042;14.472;2022-11-20T09:43:20;97659.84;;;5.14;88.64
9822;BME280;4950;46.042;14.472;2022-11-20T09:46:07;97657.72;;;5.10;89.19
9822;BME280;4950;46.042;14.472;2022-11-20T09:48:48;97655.50;;;5.15;89.50
9822;BME280;4950;46.042;14.472;2022-11-20T09:51:27;97653.81;;;5.24;90.01
9822;BME280;4950;46.042;14.472;2022-11-20T09:54:12;97655.28;;;5.44;88.37
9822;BME280;4950;46.042;14.472;2022-11-20T09:56:42;97654.22;;;5.47;87.84
9822;BME280;4950;46.042;14.472;2022-11-20T09:59:23;97647.72;;;5.61;87.76
9822;BME280;4950;46.042;14.472;2022-11-20T10:01:54;97648.53;;;5.61;87.03
9822;BME280;4950;46.042;14.472;2022-11-20T10:04:22;97644.41;;;5.68;87.33
9822;BME280;4950;46.042;14.472;2022-11-20T10:06:53;97645.13;;;5.79;87.62
9822;BME280;4950;46.042;14.472;2022-11-20T10:09:28;97637.66;;;5.93;86.96
9822;BME280;4950;46.042;14.472;2022-11-20T10:12:11;97641.50;;;6.07;86.04
9822;BME280;4950;46.042;14.472;2022-11-20T10:14:49;97638.09;;;6.07;85.97
9822;BME280;4950;46.042;14.472;2022-11-20T10:17:31;97634.63;;;6.16;86.06
9822;BME280;4950;46.042;14.472;2022-11-20T10:20:14;97635.78;;;6.22;85.39
9822;BME280;4950;46.042;14.472;2022-11-20T10:22:49;97639.91;;;6.15;85.32
9822;BME280;4950;46.042;14.472;2022-11-20T10:25:22;97635.13;;;6.20;85.79
9822;BME280;4950;46.042;14.472;2022-11-20T10:28:15;97638.53;;;6.28;84.60
9822;BME280;4950;46.042;14.472;2022-11-20T10:30:45;97633.44;;;6.37;84.38
9822;BME280;4950;46.042;14.472;2022-11-20T10:33:19;97639.63;;;6.18;83.13
9822;BME280;4950;46.042;14.472;2022-11-20T10:35:52;97642.16;;;6.09;84.22
9822;BME280;4950;46.042;14.472;2022-11-20T10:38:24;97633.34;;;6.20;84.67
9822;BME280;4950;46.042;14.472;2022-11-20T10:40:53;97631.28;;;6.24;84.90
9822;BME280;4950;46.042;14.472;2022-11-20T10:43:41;97635.97;;;6.28;84.18
9822;BME280;4950;46.042;14.472;2022-11-20T10:46:14;97630.88;;;6.37;83.90
9822;BME280;4950;46.042;14.472;2022-11-20T10:48:43;97632.78;;;6.35;84.51
9822;BME280;4950;46.042;14.472;2022-11-20T10:51:18;97625.56;;;6.46;84.32
9822;BME280;4950;46.042;14.472;2022-11-20T10:54:12;97626.72;;;6.52;83.62
9822;BME280;4950;46.042;14.472;2022-11-20T10:56:42;97629.97;;;6.54;82.89
9822;BME280;4950;46.042;14.472;2022-11-20T10:59:28;97628.22;;;6.55;82.43
9822;BME280;4950;46.042;14.472;2022-11-20T11:01:59;97630.63;;;6.56;82.28
9822;BME280;4950;46.042;14.472;2022-11-20T11:04:45;97633.53;;;6.61;82.45
9822;BME280;4950;46.042;14.472;2022-11-20T11:07:15;97629.97;;;6.54;82.79
9822;BME280;4950;46.042;14.472;2022-11-20T11:09:44;97637.38;;;6.49;82.93
9822;BME280;4950;46.042;14.472;2022-11-20T11:12:13;97636.56;;;6.48;82.89
9822;BME280;4950;46.042;14.472;2022-11-20T11:14:44;97638.47;;;6.46;82.67
9822;BME280;4950;46.042;14.472;2022-11-20T11:17:26;97632.22;;;6.49;82.94
9822;BME280;4950;46.042;14.472;2022-11-20T11:20:00;97624.44;;;6.41;83.13
9822;BME280;4950;46.042;14.472;2022-11-20T11:22:28;97632.78;;;6.35;82.82
9822;BME280;4950;46.042;14.472;2022-11-20T11:24:56;97626.63;;;6.27;83.04
9822;BME280;4950;46.042;14.472;2022-11-20T11:27:22;97634.75;;;6.15;83.45
9822;BME280;4950;46.042;14.472;2022-11-20T11:29:49;97635.56;;;6.15;83.46
9822;BME280;4950;46.042;14.472;2022-11-20T11:32:18;97630.38;;;6.07;84.65
9822;BME280;4950;46.042;14.472;2022-11-20T11:34:59;97626.97;;;6.06;84.70
9822;BME280;4950;46.042;14.472;2022-11-20T11:37:32;97629.06;;;6.03;85.26
9822;BME280;4950;46.042;14.472;2022-11-20T11:40:00;97628.09;;;6.04;85.95
9822;BME280;4950;46.042;14.472;2022-11-20T11:42:27;97631.63;;;6.03;86.11
9822;BME280;4950;46.042;14.472;2022-11-20T11:44:56;97635.22;;;6.10;86.40
9822;BME280;4950;46.042;14.472;2022-11-20T11:47:32;97622.69;;;6.15;86.35
9822;BME280;4950;46.042;14.472;2022-11-20T11:50:18;97624.97;;;6.18;85.96
9822;BME280;4950;46.042;14.472;2022-11-20T11:52:51;97620.16;;;6.23;86.15
9822;BME280;4950;46.042;14.472;2022-11-20T11:55:26;97613.75;;;6.27;84.89
9822;BME280;4950;46.042;14.472;2022-11-20T11:58:02;97612.44;;;6.23;85.61
9822;BME280;4950;46.042;14.472;2022-11-20T12:00:34;97613.53;;;6.21;85.32
9822;BME280;4950;46.042;14.472;2022-11-20T12:03:05;97619.00;;;6.18;84.85
9822;BME280;4950;46.042;14.472;2022-11-20T12:05:40;97614.66;;;6.18;84.67
9822;BME280;4950;46.042;14.472;2022-11-20T12:08:15;97619.53;;;6.03;85.05
9822;BME280;4950;46.042;14.472;2022-11-20T12:10:47;97624.88;;;6.02;85.87
9822;BME280;4950;46.042;14.472;2022-11-20T12:13:23;97618.13;;;6.09;85.19
9822;BME280;4950;46.042;14.472;2022-11-20T12:15:53;97617.09;;;6.20;85.61
9822;BME280;4950;46.042;14.472;2022-11-20T12:18:21;97622.41;;;6.26;85.42
9822;BME280;4950;46.042;14.472;2022-11-20T12:21:00;97622.28;;;6.28;84.89
9822;BME280;4950;46.042;14.472;2022-11-20T12:23:36;97615.34;;;6.28;84.52
9822;BME280;4950;46.042;14.472;2022-11-20T12:26:13;97612.53;;;6.48;83.82
9822;BME280;4950;46.042;14.472;2022-11-20T12:28:55;97609.34;;;6.54;83.51
9822;BME280;4950;46.042;14.472;2022-11-20T12:31:38;97612.22;;;6.43;83.79
9822;BME280;4950;46.042;14.472;2022-11-20T12:34:18;97608.78;;;6.34;84.63
9822;BME280;4950;46.042;14.472;2022-11-20T12:36:56;97616.25;;;6.45;84.60
9822;BME280;4950;46.042;14.472;2022-11-20T12:39:34;97611.63;;;6.57;83.78
9822;BME280;4950;46.042;14.472;2022-11-20T12:45:52;97603.34;;;6.88;82.70
9822;BME280;4950;46.042;14.472;2022-11-20T12:48:38;97602.84;;;6.92;82.43
9822;BME280;4950;46.042;14.472;2022-11-20T12:51:32;97599.34;;;7.02;81.91
9822;BME280;4950;46.042;14.472;2022-11-20T12:54:17;97601.13;;;7.09;81.28
9822;BME280;4950;46.042;14.472;2022-11-20T12:56:51;97595.81;;;7.11;81.84
9822;BME280;4950;46.042;14.472;2022-11-20T12:59:35;97604.66;;;7.17;81.67
9822;BME280;4950;46.042;14.472;2022-11-20T13:02:16;97599.84;;;7.30;79.86
9822;BME280;4950;46.042;14.472;2022-11-20T13:05:04;97602.75;;;7.27;80.60
9822;BME280;4950;46.042;14.472;2022-11-20T13:07:35;97596.47;;;7.38;80.39
9822;BME280;4950;46.042;14.472;2022-11-20T13:10:05;97595.81;;;7.44;80.73
9822;BME280;4950;46.042;14.472;2022-11-20T13:12:44;97584.53;;;7.53;79.76
9822;BME280;4950;46.042;14.472;2022-11-20T13:15:17;97585.34;;;7.45;80.34
9822;BME280;4950;46.042;14.472;2022-11-20T13:17:51;97579.06;;;7.48;80.38
9822;BME280;4950;46.042;14.472;2022-11-20T13:20:20;97574.84;;;7.55;80.43
9822;BME280;4950;46.042;14.472;2022-11-20T13:22:49;97585.31;;;7.54;79.78
9822;BME280;4950;46.042;14.472;2022-11-20T13:25:25;97574.03;;;7.55;79.89
9822;BME280;4950;46.042;14.472;2022-11-20T13:27:53;97575.66;;;7.64;79.53
9822;BME280;4950;46.042;14.472;2022-11-20T13:30:21;97569.50;;;7.65;79.38
9822;BME280;4950;46.042;14.472;2022-11-20T13:32:53;97562.75;;;7.64;78.99
9822;BME280;4950;46.042;14.472;2022-11-20T13:35:29;97566.91;;;7.65;79.42
9822;BME280;4950;46.042;14.472;2022-11-20T13:38:01;97566.28;;;7.63;79.79
9822;BME280;4950;46.042;14.472;2022-11-20T13:40:30;97564.84;;;7.60;79.68